VIR130A KTPA-EGLL
Flight info
| Callsign | VIR130A |
|---|---|
| Flight time | N/A |
| Altitude | 37000 |
| Route | CROWD8 CROWD DCT CRMIN DCT MZULO DCT HESTA DCT ETECK M202 UKOKA/M081F370 DCT JNFOX DCT SOORY/M081F390 DCT 43N050W 46N040W 48N030W 49N020W DCT SOMAX DCT ATSUR DCT LULOX/N0465F390 DCT SIDDI DCT DAWLY DCT ELRIP DCT OTMET |
| Aircraft | A333/H-SDE3GHIJ2J3J5M1RVWXY/LB2D1 |
Departure
| Time | N/A |
|---|---|
| Airport | Tampa International Airport (KTPA) |
Arrival
| Time | 2026-05-06 05:50 |
|---|---|
| Airport | London Heathrow Airport (EGLL) |
| Time | Latitude | Longitude | Altitude | Speed | Heading |
|---|---|---|---|---|---|
| 2026-05-06 02:26 | 48.36652 | -27.24582 | 39248 ft | 520 kts | 76° |
| 2026-05-06 02:26 | 48.37924 | -27.13858 | 39253 ft | 520 kts | 77° |
| 2026-05-06 02:27 | 48.39209 | -27.03151 | 39249 ft | 520 kts | 77° |
| 2026-05-06 02:27 | 48.40448 | -26.92497 | 39255 ft | 519 kts | 77° |
| 2026-05-06 02:28 | 48.41713 | -26.81797 | 39258 ft | 519 kts | 77° |
| 2026-05-06 02:28 | 48.42732 | -26.72891 | 39266 ft | 519 kts | 77° |
| 2026-05-06 02:29 | 48.43974 | -26.62190 | 39263 ft | 518 kts | 77° |
| 2026-05-06 02:29 | 48.45182 | -26.51480 | 39265 ft | 518 kts | 77° |
| 2026-05-06 02:30 | 48.46403 | -26.40789 | 39272 ft | 517 kts | 77° |
| 2026-05-06 02:30 | 48.47588 | -26.30098 | 39272 ft | 517 kts | 77° |
| 2026-05-06 02:31 | 48.48785 | -26.19424 | 39270 ft | 516 kts | 77° |
| 2026-05-06 02:31 | 48.49949 | -26.08751 | 39266 ft | 515 kts | 77° |
| 2026-05-06 02:32 | 48.51123 | -25.98078 | 39274 ft | 514 kts | 77° |
| 2026-05-06 02:32 | 48.52261 | -25.87476 | 39279 ft | 514 kts | 77° |
| 2026-05-06 02:33 | 48.53407 | -25.76839 | 39281 ft | 513 kts | 77° |
| 2026-05-06 02:33 | 48.53778 | -25.73318 | 39277 ft | 513 kts | 77° |
| 2026-05-06 02:34 | 48.55654 | -25.55579 | 39281 ft | 512 kts | 77° |
| 2026-05-06 02:34 | 48.56757 | -25.44970 | 39286 ft | 511 kts | 77° |
| 2026-05-06 02:35 | 48.57854 | -25.34356 | 39279 ft | 511 kts | 77° |
| 2026-05-06 02:35 | 48.58938 | -25.23765 | 39283 ft | 510 kts | 77° |
| 2026-05-06 02:36 | 48.60002 | -25.13257 | 39277 ft | 508 kts | 77° |
| 2026-05-06 02:36 | 48.61063 | -25.02719 | 39290 ft | 506 kts | 77° |
| 2026-05-06 02:37 | 48.62106 | -24.92195 | 39289 ft | 505 kts | 77° |
| 2026-05-06 02:37 | 48.63143 | -24.81713 | 39283 ft | 504 kts | 77° |
| 2026-05-06 02:38 | 48.64161 | -24.71238 | 39282 ft | 503 kts | 77° |
| 2026-05-06 02:38 | 48.65175 | -24.60773 | 39277 ft | 503 kts | 77° |
| 2026-05-06 02:39 | 48.66172 | -24.50321 | 39279 ft | 502 kts | 77° |
| 2026-05-06 02:39 | 48.67165 | -24.39868 | 39281 ft | 501 kts | 77° |
| 2026-05-06 02:40 | 48.68142 | -24.29427 | 39289 ft | 500 kts | 77° |
| 2026-05-06 02:40 | 48.69111 | -24.19004 | 39284 ft | 500 kts | 78° |
| 2026-05-06 02:41 | 48.70062 | -24.08652 | 39277 ft | 499 kts | 78° |
| 2026-05-06 02:41 | 48.71009 | -23.98254 | 39283 ft | 498 kts | 78° |
| 2026-05-06 02:42 | 48.71945 | -23.87853 | 39280 ft | 498 kts | 78° |
| 2026-05-06 02:42 | 48.72871 | -23.77465 | 39279 ft | 497 kts | 78° |
| 2026-05-06 02:43 | 48.73786 | -23.67093 | 39280 ft | 496 kts | 78° |
| 2026-05-06 02:43 | 48.74689 | -23.56733 | 39275 ft | 495 kts | 78° |
| 2026-05-06 02:44 | 48.75583 | -23.46387 | 39275 ft | 495 kts | 78° |
| 2026-05-06 02:44 | 48.76459 | -23.36121 | 39279 ft | 494 kts | 78° |
| 2026-05-06 02:45 | 48.77333 | -23.25795 | 39275 ft | 494 kts | 78° |
| 2026-05-06 02:45 | 48.78194 | -23.15479 | 39272 ft | 493 kts | 78° |
| 2026-05-06 02:46 | 48.79047 | -23.05166 | 39276 ft | 492 kts | 78° |
| 2026-05-06 02:46 | 48.79889 | -22.94855 | 39270 ft | 492 kts | 79° |
| 2026-05-06 02:47 | 48.80720 | -22.84574 | 39273 ft | 491 kts | 79° |
| 2026-05-06 02:47 | 48.81543 | -22.74280 | 39262 ft | 491 kts | 79° |
| 2026-05-06 02:48 | 48.82354 | -22.64008 | 39265 ft | 490 kts | 79° |
| 2026-05-06 02:48 | 48.83156 | -22.53741 | 39265 ft | 490 kts | 79° |
| 2026-05-06 02:49 | 48.83947 | -22.43473 | 39267 ft | 490 kts | 79° |
| 2026-05-06 02:49 | 48.84725 | -22.33273 | 39258 ft | 490 kts | 79° |
| 2026-05-06 02:50 | 48.85498 | -22.23000 | 39256 ft | 489 kts | 79° |
| 2026-05-06 02:50 | 48.86264 | -22.12739 | 39248 ft | 488 kts | 79° |
| 2026-05-06 02:51 | 48.87016 | -22.02487 | 39251 ft | 488 kts | 79° |
| 2026-05-06 02:51 | 48.87761 | -21.92243 | 39260 ft | 488 kts | 79° |
| 2026-05-06 02:52 | 48.88496 | -21.81987 | 39255 ft | 488 kts | 79° |
| 2026-05-06 02:52 | 48.89216 | -21.71810 | 39249 ft | 488 kts | 79° |
| 2026-05-06 02:53 | 48.89934 | -21.61546 | 39252 ft | 488 kts | 79° |
| 2026-05-06 02:53 | 48.90642 | -21.51269 | 39256 ft | 488 kts | 79° |
| 2026-05-06 02:54 | 48.91343 | -21.40993 | 39250 ft | 489 kts | 79° |
| 2026-05-06 02:54 | 48.92033 | -21.30711 | 39247 ft | 488 kts | 79° |
| 2026-05-06 02:55 | 48.92714 | -21.20435 | 39251 ft | 488 kts | 79° |
| 2026-05-06 02:55 | 48.93386 | -21.10152 | 39251 ft | 488 kts | 80° |
| 2026-05-06 02:56 | 48.94047 | -20.99883 | 39244 ft | 488 kts | 80° |
| 2026-05-06 02:56 | 48.94701 | -20.89608 | 39252 ft | 488 kts | 80° |
| 2026-05-06 02:57 | 48.95339 | -20.79406 | 39249 ft | 487 kts | 80° |
| 2026-05-06 02:57 | 48.95975 | -20.69121 | 39242 ft | 488 kts | 80° |
| 2026-05-06 02:58 | 48.96599 | -20.58846 | 39244 ft | 487 kts | 80° |
| 2026-05-06 02:58 | 48.97216 | -20.48555 | 39249 ft | 488 kts | 81° |
| 2026-05-06 02:59 | 48.97826 | -20.38261 | 39239 ft | 488 kts | 81° |
| 2026-05-06 02:59 | 48.98416 | -20.28040 | 39238 ft | 488 kts | 81° |
| 2026-05-06 03:00 | 48.99012 | -20.17732 | 39244 ft | 488 kts | 81° |
| 2026-05-06 03:00 | 48.99585 | -20.07443 | 39232 ft | 488 kts | 81° |
| 2026-05-06 03:01 | 49.00573 | -19.97321 | 39262 ft | 477 kts | 66° |
| 2026-05-06 03:01 | 49.02803 | -19.87778 | 39245 ft | 479 kts | 68° |
| 2026-05-06 03:02 | 49.04871 | -19.78132 | 39243 ft | 477 kts | 66° |
| 2026-05-06 03:02 | 49.07089 | -19.68590 | 39235 ft | 478 kts | 68° |
| 2026-05-06 03:03 | 49.09152 | -19.58952 | 39238 ft | 477 kts | 66° |
| 2026-05-06 03:03 | 49.11337 | -19.49376 | 39235 ft | 479 kts | 68° |
| 2026-05-06 03:04 | 49.13392 | -19.39780 | 39234 ft | 478 kts | 67° |
| 2026-05-06 03:04 | 49.15558 | -19.30111 | 39231 ft | 479 kts | 68° |
| 2026-05-06 03:05 | 49.17613 | -19.20503 | 39223 ft | 478 kts | 67° |
| 2026-05-06 03:05 | 49.19738 | -19.10864 | 39234 ft | 478 kts | 68° |
| 2026-05-06 03:06 | 49.21801 | -19.01191 | 39228 ft | 478 kts | 68° |
| 2026-05-06 03:06 | 49.23899 | -18.91533 | 39226 ft | 479 kts | 69° |
| 2026-05-06 03:07 | 49.25955 | -18.81853 | 39227 ft | 478 kts | 68° |
| 2026-05-06 03:07 | 49.28025 | -18.72183 | 39220 ft | 478 kts | 69° |
| 2026-05-06 03:08 | 49.30076 | -18.62482 | 39224 ft | 478 kts | 68° |
| 2026-05-06 03:08 | 49.32112 | -18.52836 | 39220 ft | 480 kts | 69° |
| 2026-05-06 03:09 | 49.34157 | -18.43104 | 39222 ft | 479 kts | 68° |
| 2026-05-06 03:09 | 49.36187 | -18.33364 | 39215 ft | 479 kts | 69° |
| 2026-05-06 03:10 | 49.38217 | -18.23639 | 39217 ft | 478 kts | 69° |
| 2026-05-06 03:10 | 49.40224 | -18.13896 | 39216 ft | 479 kts | 69° |
| 2026-05-06 03:11 | 49.42238 | -18.04166 | 39215 ft | 478 kts | 69° |
| 2026-05-06 03:11 | 49.44225 | -17.94413 | 39206 ft | 478 kts | 69° |
| 2026-05-06 03:12 | 49.46224 | -17.84659 | 39210 ft | 478 kts | 69° |
| 2026-05-06 03:12 | 49.48182 | -17.74960 | 39208 ft | 478 kts | 69° |
| 2026-05-06 03:13 | 49.50162 | -17.65199 | 39207 ft | 478 kts | 70° |
| 2026-05-06 03:13 | 49.52121 | -17.55411 | 39206 ft | 478 kts | 70° |
| 2026-05-06 03:14 | 49.54082 | -17.45630 | 39200 ft | 479 kts | 70° |
| 2026-05-06 03:14 | 49.56032 | -17.35807 | 39201 ft | 480 kts | 70° |
| 2026-05-06 03:15 | 49.57980 | -17.25965 | 39201 ft | 480 kts | 70° |
| 2026-05-06 03:15 | 49.59922 | -17.16106 | 39196 ft | 480 kts | 70° |
| 2026-05-06 03:16 | 49.61838 | -17.06312 | 39194 ft | 480 kts | 70° |
| 2026-05-06 03:16 | 49.63763 | -16.96448 | 39200 ft | 480 kts | 70° |
| 2026-05-06 03:17 | 49.65671 | -16.86586 | 39196 ft | 479 kts | 70° |
| 2026-05-06 03:17 | 49.67576 | -16.76728 | 39189 ft | 479 kts | 71° |
| 2026-05-06 03:18 | 49.69149 | -16.68514 | 39185 ft | 480 kts | 71° |
| 2026-05-06 03:18 | 49.71041 | -16.58629 | 39173 ft | 480 kts | 71° |
| 2026-05-06 03:19 | 49.72919 | -16.48732 | 39178 ft | 480 kts | 71° |
| 2026-05-06 03:19 | 49.74792 | -16.38829 | 39193 ft | 479 kts | 71° |
| 2026-05-06 03:20 | 49.77582 | -16.23976 | 39178 ft | 479 kts | 71° |
| 2026-05-06 03:20 | 49.79432 | -16.14051 | 39184 ft | 479 kts | 71° |
| 2026-05-06 03:21 | 49.81275 | -16.04123 | 39182 ft | 479 kts | 71° |
| 2026-05-06 03:21 | 49.83097 | -15.94248 | 39183 ft | 480 kts | 71° |
| 2026-05-06 03:22 | 49.84920 | -15.84313 | 39165 ft | 480 kts | 72° |
| 2026-05-06 03:22 | 49.86736 | -15.74372 | 39174 ft | 479 kts | 72° |
| 2026-05-06 03:23 | 49.88542 | -15.64421 | 39168 ft | 479 kts | 72° |
| 2026-05-06 03:23 | 49.90343 | -15.54455 | 39164 ft | 480 kts | 72° |
| 2026-05-06 03:24 | 49.92136 | -15.44467 | 39161 ft | 480 kts | 72° |
| 2026-05-06 03:24 | 49.93921 | -15.34468 | 39161 ft | 480 kts | 72° |
| 2026-05-06 03:25 | 49.95699 | -15.24465 | 39161 ft | 480 kts | 72° |
| 2026-05-06 03:25 | 49.97453 | -15.14526 | 39162 ft | 480 kts | 72° |
| 2026-05-06 03:26 | 49.99212 | -15.04517 | 39149 ft | 480 kts | 72° |
| 2026-05-06 03:26 | 50.00049 | -14.94225 | 39164 ft | 485 kts | 89° |
| 2026-05-06 03:27 | 50.00044 | -14.83730 | 39145 ft | 484 kts | 86° |
| 2026-05-06 03:27 | 50.00103 | -14.73258 | 39143 ft | 486 kts | 89° |
| 2026-05-06 03:28 | 50.00085 | -14.62822 | 39147 ft | 485 kts | 87° |
| 2026-05-06 03:28 | 50.00123 | -14.52324 | 39148 ft | 486 kts | 89° |
| 2026-05-06 03:29 | 50.00093 | -14.41828 | 39138 ft | 485 kts | 88° |
| 2026-05-06 03:29 | 50.00104 | -14.31340 | 39139 ft | 485 kts | 89° |
| 2026-05-06 03:30 | 50.00064 | -14.20840 | 39138 ft | 486 kts | 88° |
| 2026-05-06 03:30 | 50.00047 | -14.10395 | 39132 ft | 486 kts | 89° |
| 2026-05-06 03:31 | 50.00025 | -13.99914 | 39132 ft | 484 kts | 85° |
| 2026-05-06 03:31 | 50.00939 | -13.89575 | 39136 ft | 483 kts | 79° |
| 2026-05-06 03:32 | 50.01777 | -13.79184 | 39128 ft | 484 kts | 81° |
| 2026-05-06 03:32 | 50.02708 | -13.68824 | 39126 ft | 483 kts | 80° |
| 2026-05-06 03:33 | 50.03542 | -13.58449 | 39126 ft | 483 kts | 81° |
| 2026-05-06 03:33 | 50.04440 | -13.48089 | 39121 ft | 484 kts | 80° |
| 2026-05-06 03:34 | 50.05266 | -13.37685 | 39122 ft | 485 kts | 81° |
| 2026-05-06 03:34 | 50.06135 | -13.27372 | 39126 ft | 483 kts | 81° |
| 2026-05-06 03:35 | 50.06947 | -13.16969 | 39121 ft | 483 kts | 81° |
| 2026-05-06 03:35 | 50.07798 | -13.06604 | 39120 ft | 482 kts | 81° |
| 2026-05-06 03:36 | 50.08591 | -12.96235 | 39117 ft | 482 kts | 82° |
| 2026-05-06 03:36 | 50.09420 | -12.85869 | 39113 ft | 482 kts | 81° |
| 2026-05-06 03:37 | 50.10196 | -12.75501 | 39112 ft | 482 kts | 82° |
| 2026-05-06 03:37 | 50.11005 | -12.65127 | 39116 ft | 482 kts | 82° |
| 2026-05-06 03:38 | 50.11767 | -12.54728 | 39110 ft | 483 kts | 82° |
| 2026-05-06 03:38 | 50.12550 | -12.44401 | 39112 ft | 483 kts | 82° |
| 2026-05-06 03:39 | 50.13297 | -12.33989 | 39113 ft | 484 kts | 82° |
| 2026-05-06 03:39 | 50.14065 | -12.23556 | 39102 ft | 485 kts | 82° |
| 2026-05-06 03:40 | 50.14800 | -12.13116 | 39102 ft | 484 kts | 82° |
| 2026-05-06 03:40 | 50.15544 | -12.02669 | 39108 ft | 485 kts | 82° |
| 2026-05-06 03:41 | 50.16267 | -11.92217 | 39105 ft | 485 kts | 82° |
| 2026-05-06 03:41 | 50.16987 | -11.81754 | 39095 ft | 485 kts | 82° |
| 2026-05-06 03:42 | 50.17697 | -11.71289 | 39096 ft | 485 kts | 82° |
| 2026-05-06 03:42 | 50.18392 | -11.60825 | 39084 ft | 485 kts | 83° |
| 2026-05-06 03:43 | 50.19083 | -11.50428 | 39098 ft | 484 kts | 82° |
| 2026-05-06 03:43 | 50.19755 | -11.39976 | 39093 ft | 484 kts | 83° |
| 2026-05-06 03:44 | 50.20433 | -11.29529 | 39087 ft | 484 kts | 83° |
| 2026-05-06 03:44 | 50.21086 | -11.19073 | 39080 ft | 484 kts | 83° |
| 2026-05-06 03:45 | 50.21743 | -11.08613 | 39085 ft | 484 kts | 83° |
| 2026-05-06 03:45 | 50.22380 | -10.98154 | 39076 ft | 484 kts | 83° |
| 2026-05-06 03:46 | 50.23014 | -10.87702 | 39074 ft | 483 kts | 83° |
| 2026-05-06 03:46 | 50.23636 | -10.77239 | 39081 ft | 483 kts | 83° |
| 2026-05-06 03:47 | 50.24243 | -10.66851 | 39073 ft | 483 kts | 83° |
| 2026-05-06 03:47 | 50.24851 | -10.56379 | 39073 ft | 484 kts | 83° |
| 2026-05-06 03:48 | 50.25442 | -10.45881 | 39077 ft | 485 kts | 83° |
| 2026-05-06 03:48 | 50.26035 | -10.35378 | 39069 ft | 485 kts | 83° |
| 2026-05-06 03:49 | 50.26602 | -10.24942 | 39067 ft | 485 kts | 84° |
| 2026-05-06 03:49 | 50.27175 | -10.14445 | 39065 ft | 484 kts | 84° |
| 2026-05-06 03:50 | 50.27729 | -10.03939 | 39065 ft | 485 kts | 84° |
| 2026-05-06 03:50 | 50.28279 | -9.93436 | 39062 ft | 485 kts | 84° |
| 2026-05-06 03:51 | 50.28819 | -9.82925 | 39057 ft | 485 kts | 84° |
| 2026-05-06 03:51 | 50.29346 | -9.72401 | 39054 ft | 485 kts | 84° |
| 2026-05-06 03:52 | 50.29871 | -9.61879 | 39052 ft | 486 kts | 84° |
| 2026-05-06 03:52 | 50.30377 | -9.51337 | 39060 ft | 485 kts | 84° |
| 2026-05-06 03:53 | 50.30886 | -9.40808 | 39051 ft | 485 kts | 84° |
| 2026-05-06 03:53 | 50.31371 | -9.30282 | 39048 ft | 485 kts | 84° |
| 2026-05-06 03:54 | 50.31855 | -9.19822 | 39044 ft | 486 kts | 85° |
| 2026-05-06 03:54 | 50.32325 | -9.09274 | 39046 ft | 485 kts | 85° |
| 2026-05-06 03:55 | 50.32791 | -8.98735 | 39040 ft | 485 kts | 85° |
| 2026-05-06 03:55 | 50.33246 | -8.88198 | 39045 ft | 485 kts | 85° |
| 2026-05-06 03:56 | 50.33686 | -8.77655 | 39041 ft | 485 kts | 85° |
| 2026-05-06 03:56 | 50.34125 | -8.67169 | 39044 ft | 485 kts | 85° |
| 2026-05-06 03:57 | 50.34543 | -8.56622 | 39042 ft | 485 kts | 85° |
| 2026-05-06 03:57 | 50.34967 | -8.46080 | 39037 ft | 485 kts | 85° |
| 2026-05-06 03:58 | 50.35366 | -8.35552 | 39035 ft | 485 kts | 85° |
| 2026-05-06 03:58 | 50.35768 | -8.25012 | 39035 ft | 485 kts | 85° |
| 2026-05-06 03:59 | 50.36152 | -8.14452 | 39034 ft | 486 kts | 85° |
| 2026-05-06 03:59 | 50.36531 | -8.03895 | 39040 ft | 485 kts | 86° |
| 2026-05-06 04:00 | 50.37091 | -7.93392 | 39040 ft | 484 kts | 84° |
| 2026-05-06 04:00 | 50.37546 | -7.82926 | 39034 ft | 485 kts | 84° |
| 2026-05-06 04:01 | 50.38197 | -7.72405 | 39038 ft | 485 kts | 83° |
| 2026-05-06 04:01 | 50.38679 | -7.61849 | 39030 ft | 485 kts | 85° |
| 2026-05-06 04:02 | 50.39270 | -7.51332 | 39037 ft | 484 kts | 84° |
| 2026-05-06 04:02 | 50.39758 | -7.40793 | 39034 ft | 484 kts | 85° |
| 2026-05-06 04:03 | 50.40316 | -7.30286 | 39036 ft | 484 kts | 84° |
| 2026-05-06 04:03 | 50.40794 | -7.19755 | 39033 ft | 484 kts | 85° |
| 2026-05-06 04:04 | 50.41327 | -7.09233 | 39035 ft | 484 kts | 84° |
| 2026-05-06 04:04 | 50.41787 | -6.98777 | 39029 ft | 484 kts | 85° |
| 2026-05-06 04:05 | 50.42296 | -6.88263 | 39038 ft | 483 kts | 85° |
| 2026-05-06 04:05 | 50.42744 | -6.77733 | 39032 ft | 483 kts | 85° |
| 2026-05-06 04:06 | 50.43231 | -6.67230 | 39028 ft | 483 kts | 85° |
| 2026-05-06 04:06 | 50.43661 | -6.56713 | 39030 ft | 483 kts | 85° |
| 2026-05-06 04:07 | 50.44127 | -6.46210 | 39030 ft | 483 kts | 85° |
| 2026-05-06 04:07 | 50.44469 | -6.37474 | 39025 ft | 483 kts | 86° |
| 2026-05-06 04:08 | 50.44913 | -6.26958 | 39022 ft | 483 kts | 86° |
| 2026-05-06 04:08 | 50.45314 | -6.16427 | 39027 ft | 484 kts | 86° |
| 2026-05-06 04:09 | 50.45737 | -6.05889 | 39022 ft | 484 kts | 86° |
| 2026-05-06 04:09 | 50.46124 | -5.95346 | 39019 ft | 484 kts | 86° |
| 2026-05-06 04:10 | 50.46524 | -5.84798 | 39022 ft | 484 kts | 86° |
| 2026-05-06 04:10 | 50.46894 | -5.74232 | 39021 ft | 484 kts | 86° |
| 2026-05-06 04:11 | 50.47274 | -5.63678 | 39013 ft | 484 kts | 86° |
| 2026-05-06 04:11 | 50.47626 | -5.53191 | 39011 ft | 484 kts | 86° |
| 2026-05-06 04:12 | 50.47976 | -5.42645 | 39010 ft | 483 kts | 86° |
| 2026-05-06 04:12 | 50.48332 | -5.32099 | 39005 ft | 483 kts | 87° |
| 2026-05-06 04:13 | 50.48644 | -5.21537 | 39002 ft | 483 kts | 86° |
| 2026-05-06 04:13 | 50.48981 | -5.11073 | 39007 ft | 483 kts | 87° |
| 2026-05-06 04:14 | 50.49280 | -5.00556 | 39006 ft | 482 kts | 86° |
| 2026-05-06 04:14 | 50.49591 | -4.90055 | 39000 ft | 481 kts | 87° |
| 2026-05-06 04:15 | 50.49877 | -4.79576 | 39003 ft | 479 kts | 87° |
| 2026-05-06 04:15 | 50.50162 | -4.69127 | 38997 ft | 478 kts | 87° |
| 2026-05-06 04:16 | 50.50433 | -4.58683 | 39005 ft | 477 kts | 87° |
| 2026-05-06 04:16 | 50.50693 | -4.48269 | 38997 ft | 477 kts | 88° |
| 2026-05-06 04:17 | 50.50950 | -4.37914 | 39000 ft | 477 kts | 87° |
| 2026-05-06 04:17 | 50.51185 | -4.27488 | 38991 ft | 477 kts | 88° |
| 2026-05-06 04:18 | 50.51430 | -4.17067 | 39001 ft | 477 kts | 88° |
| 2026-05-06 04:18 | 50.51645 | -4.06624 | 39000 ft | 479 kts | 88° |
| 2026-05-06 04:19 | 50.51923 | -3.96170 | 38990 ft | 478 kts | 83° |
| 2026-05-06 04:19 | 50.53104 | -3.85883 | 38989 ft | 479 kts | 79° |
| 2026-05-06 04:20 | 50.54199 | -3.75572 | 38987 ft | 478 kts | 80° |
| 2026-05-06 04:20 | 50.55387 | -3.65271 | 38993 ft | 478 kts | 79° |
| 2026-05-06 04:21 | 50.56477 | -3.54943 | 38984 ft | 479 kts | 80° |
| 2026-05-06 04:21 | 50.57637 | -3.44620 | 38996 ft | 479 kts | 79° |
| 2026-05-06 04:22 | 50.58839 | -3.34303 | 38985 ft | 480 kts | 79° |
| 2026-05-06 04:23 | 50.60637 | -3.18796 | 38981 ft | 480 kts | 79° |
| 2026-05-06 04:23 | 50.61838 | -3.08446 | 38980 ft | 480 kts | 79° |
| 2026-05-06 04:24 | 50.62998 | -2.98162 | 38972 ft | 480 kts | 79° |
| 2026-05-06 04:24 | 50.64179 | -2.87795 | 38979 ft | 480 kts | 80° |
| 2026-05-06 04:25 | 50.65333 | -2.77429 | 38985 ft | 480 kts | 80° |
| 2026-05-06 04:25 | 50.66493 | -2.67055 | 38962 ft | 480 kts | 80° |
| 2026-05-06 04:26 | 50.67623 | -2.56668 | 38976 ft | 480 kts | 79° |
| 2026-05-06 04:26 | 50.68193 | -2.46228 | 38985 ft | 480 kts | 93° |
| 2026-05-06 04:27 | 50.67880 | -2.35720 | 38979 ft | 480 kts | 91° |
| 2026-05-06 04:27 | 50.67821 | -2.25309 | 38980 ft | 480 kts | 93° |
| 2026-05-06 04:28 | 50.67514 | -2.14867 | 38977 ft | 480 kts | 91° |
| 2026-05-06 04:28 | 50.68452 | -2.04541 | 39005 ft | 480 kts | 66° |
| 2026-05-06 04:28 | 50.70139 | -2.00000 | 38984 ft | 481 kts | 50° |
| 2026-05-06 04:29 | 50.72529 | -1.96340 | 38989 ft | 480 kts | 35° |
| 2026-05-06 04:29 | 50.75457 | -1.93834 | 38996 ft | 478 kts | 19° |
| 2026-05-06 04:29 | 50.78684 | -1.92657 | 38988 ft | 476 kts | 3° |
| 2026-05-06 04:29 | 50.81977 | -1.92876 | 38992 ft | 474 kts | 348° |
| 2026-05-06 04:30 | 50.85101 | -1.94480 | 39001 ft | 472 kts | 333° |
| 2026-05-06 04:30 | 50.87834 | -1.97318 | 38993 ft | 470 kts | 317° |
| 2026-05-06 04:30 | 50.89989 | -2.01176 | 38990 ft | 468 kts | 302° |
| 2026-05-06 04:30 | 50.91419 | -2.05780 | 39000 ft | 465 kts | 288° |
| 2026-05-06 04:31 | 50.92386 | -2.10669 | 38985 ft | 466 kts | 286° |
| 2026-05-06 04:31 | 50.94274 | -2.20422 | 38983 ft | 466 kts | 287° |
| 2026-05-06 04:32 | 50.96176 | -2.30257 | 38991 ft | 466 kts | 286° |
| 2026-05-06 04:32 | 50.96948 | -2.40315 | 39006 ft | 464 kts | 257° |
| 2026-05-06 04:32 | 50.95958 | -2.45177 | 38979 ft | 466 kts | 244° |
| 2026-05-06 04:33 | 50.94206 | -2.49489 | 38992 ft | 465 kts | 229° |
| 2026-05-06 04:33 | 50.91861 | -2.52867 | 38978 ft | 466 kts | 214° |
| 2026-05-06 04:33 | 50.88984 | -2.55202 | 38979 ft | 467 kts | 199° |
| 2026-05-06 04:33 | 50.85799 | -2.56240 | 38995 ft | 469 kts | 184° |
| 2026-05-06 04:34 | 50.82546 | -2.55898 | 38987 ft | 471 kts | 168° |
| 2026-05-06 04:34 | 50.79458 | -2.54195 | 38987 ft | 473 kts | 153° |
| 2026-05-06 04:34 | 50.76764 | -2.51223 | 38990 ft | 474 kts | 137° |
| 2026-05-06 04:34 | 50.74694 | -2.47260 | 38992 ft | 476 kts | 121° |
| 2026-05-06 04:35 | 50.73324 | -2.42439 | 38995 ft | 477 kts | 108° |
| 2026-05-06 04:35 | 50.71425 | -2.32453 | 38978 ft | 478 kts | 108° |
| 2026-05-06 04:36 | 50.69452 | -2.22448 | 38971 ft | 477 kts | 108° |
| 2026-05-06 04:36 | 50.67526 | -2.12424 | 38976 ft | 477 kts | 107° |
| 2026-05-06 04:36 | 50.66951 | -2.07281 | 38975 ft | 478 kts | 90° |
| 2026-05-06 04:37 | 50.67363 | -2.02074 | 38994 ft | 481 kts | 75° |
| 2026-05-06 04:37 | 50.68650 | -1.97223 | 38992 ft | 481 kts | 59° |
| 2026-05-06 04:37 | 50.70721 | -1.93091 | 38981 ft | 481 kts | 42° |
| 2026-05-06 04:37 | 50.73429 | -1.90023 | 38991 ft | 480 kts | 26° |
| 2026-05-06 04:38 | 50.76557 | -1.88250 | 38994 ft | 479 kts | 10° |
| 2026-05-06 04:38 | 50.79864 | -1.87881 | 38990 ft | 477 kts | 354° |
| 2026-05-06 04:38 | 50.83094 | -1.88949 | 38993 ft | 474 kts | 338° |
| 2026-05-06 04:38 | 50.85967 | -1.91313 | 38995 ft | 472 kts | 323° |
| 2026-05-06 04:39 | 50.88366 | -1.94848 | 38995 ft | 470 kts | 307° |
| 2026-05-06 04:39 | 50.90062 | -1.99244 | 38995 ft | 469 kts | 292° |
| 2026-05-06 04:39 | 50.91109 | -2.04127 | 38987 ft | 468 kts | 286° |
| 2026-05-06 04:40 | 50.93019 | -2.13989 | 38990 ft | 468 kts | 287° |
| 2026-05-06 04:40 | 50.94923 | -2.23786 | 38983 ft | 468 kts | 286° |
| 2026-05-06 04:41 | 50.96776 | -2.33686 | 38977 ft | 467 kts | 280° |
| 2026-05-06 04:41 | 50.96943 | -2.38811 | 38983 ft | 466 kts | 263° |
| 2026-05-06 04:41 | 50.96223 | -2.43821 | 38979 ft | 466 kts | 248° |
| 2026-05-06 04:41 | 50.94701 | -2.48336 | 38988 ft | 466 kts | 233° |
| 2026-05-06 04:42 | 50.92520 | -2.51999 | 38977 ft | 466 kts | 218° |
| 2026-05-06 04:42 | 50.89760 | -2.54672 | 38984 ft | 467 kts | 203° |
| 2026-05-06 04:42 | 50.86632 | -2.56074 | 38983 ft | 468 kts | 188° |
| 2026-05-06 04:42 | 50.83387 | -2.56102 | 38986 ft | 469 kts | 172° |
| 2026-05-06 04:43 | 50.80278 | -2.54781 | 38984 ft | 470 kts | 157° |
| 2026-05-06 04:43 | 50.77463 | -2.52156 | 38990 ft | 472 kts | 141° |
| 2026-05-06 04:43 | 50.75194 | -2.48427 | 38988 ft | 473 kts | 126° |
| 2026-05-06 04:43 | 50.73636 | -2.43845 | 38993 ft | 474 kts | 110° |
| 2026-05-06 04:44 | 50.72634 | -2.38877 | 38985 ft | 476 kts | 107° |
| 2026-05-06 04:44 | 50.70716 | -2.28882 | 38966 ft | 475 kts | 108° |
| 2026-05-06 04:45 | 50.68790 | -2.18900 | 38976 ft | 476 kts | 108° |
| 2026-05-06 04:45 | 50.67011 | -2.08875 | 38963 ft | 476 kts | 96° |
| 2026-05-06 04:45 | 50.67142 | -2.03660 | 38995 ft | 480 kts | 80° |
| 2026-05-06 04:46 | 50.68160 | -1.98659 | 38989 ft | 481 kts | 63° |
| 2026-05-06 04:46 | 50.69998 | -1.94278 | 38983 ft | 481 kts | 48° |
| 2026-05-06 04:46 | 50.72527 | -1.90850 | 38993 ft | 481 kts | 31° |
| 2026-05-06 04:46 | 50.75550 | -1.88653 | 38991 ft | 480 kts | 15° |
| 2026-05-06 04:47 | 50.78835 | -1.87840 | 39000 ft | 479 kts | 359° |
| 2026-05-06 04:47 | 50.82129 | -1.88475 | 38994 ft | 476 kts | 343° |
| 2026-05-06 04:47 | 50.85170 | -1.90495 | 38988 ft | 474 kts | 327° |
| 2026-05-06 04:47 | 50.87736 | -1.93718 | 38993 ft | 472 kts | 311° |
| 2026-05-06 04:48 | 50.89657 | -1.97922 | 38996 ft | 471 kts | 296° |
| 2026-05-06 04:48 | 50.91790 | -2.07688 | 38983 ft | 470 kts | 286° |
| 2026-05-06 04:49 | 50.93724 | -2.17575 | 38993 ft | 469 kts | 286° |
| 2026-05-06 04:49 | 50.95610 | -2.27356 | 38981 ft | 469 kts | 286° |
| 2026-05-06 04:50 | 50.96991 | -2.37413 | 38997 ft | 467 kts | 267° |
| 2026-05-06 04:50 | 50.96500 | -2.42504 | 38979 ft | 468 kts | 252° |
| 2026-05-06 04:50 | 50.95185 | -2.47195 | 38981 ft | 467 kts | 237° |
| 2026-05-06 04:50 | 50.93247 | -2.50985 | 38999 ft | 466 kts | 223° |
| 2026-05-06 04:51 | 50.90537 | -2.54078 | 38978 ft | 467 kts | 207° |
| 2026-05-06 04:51 | 50.87494 | -2.55837 | 38982 ft | 466 kts | 191° |
| 2026-05-06 04:51 | 50.84261 | -2.56230 | 38984 ft | 467 kts | 176° |
| 2026-05-06 04:51 | 50.81073 | -2.55251 | 38978 ft | 468 kts | 161° |
| 2026-05-06 04:52 | 50.78166 | -2.52968 | 38998 ft | 470 kts | 146° |
| 2026-05-06 04:52 | 50.75737 | -2.49509 | 39008 ft | 471 kts | 130° |
| 2026-05-06 04:52 | 50.73983 | -2.45148 | 38986 ft | 473 kts | 114° |
| 2026-05-06 04:53 | 50.71956 | -2.35330 | 38979 ft | 474 kts | 107° |
| 2026-05-06 04:53 | 50.70048 | -2.25373 | 38977 ft | 474 kts | 108° |
| 2026-05-06 04:54 | 50.68083 | -2.15426 | 38996 ft | 475 kts | 108° |
| 2026-05-06 04:54 | 50.66950 | -2.07005 | 38977 ft | 476 kts | 89° |
| 2026-05-06 04:54 | 50.67405 | -2.01817 | 38980 ft | 480 kts | 74° |
| 2026-05-06 04:55 | 50.68730 | -1.97000 | 39000 ft | 480 kts | 58° |
| 2026-05-06 04:55 | 50.70838 | -1.92927 | 38993 ft | 481 kts | 42° |
| 2026-05-06 04:55 | 50.73566 | -1.89908 | 38969 ft | 482 kts | 25° |
| 2026-05-06 04:55 | 50.76726 | -1.88188 | 38995 ft | 481 kts | 10° |
| 2026-05-06 04:56 | 50.80052 | -1.87912 | 39007 ft | 479 kts | 354° |
| 2026-05-06 04:56 | 50.83288 | -1.89067 | 38993 ft | 477 kts | 337° |
| 2026-05-06 04:56 | 50.86190 | -1.91558 | 38977 ft | 475 kts | 321° |
| 2026-05-06 04:56 | 50.88544 | -1.95199 | 38996 ft | 473 kts | 306° |
| 2026-05-06 04:57 | 50.90178 | -1.99694 | 39009 ft | 471 kts | 291° |
| 2026-05-06 04:57 | 50.92149 | -2.09520 | 38972 ft | 471 kts | 286° |
| 2026-05-06 04:58 | 50.94040 | -2.19228 | 38974 ft | 471 kts | 287° |
| 2026-05-06 04:58 | 50.95993 | -2.29310 | 38976 ft | 472 kts | 286° |
| 2026-05-06 04:59 | 50.96888 | -2.39500 | 39010 ft | 469 kts | 261° |
| 2026-05-06 04:59 | 50.96056 | -2.44493 | 38981 ft | 470 kts | 246° |
| 2026-05-06 04:59 | 50.94419 | -2.48947 | 38974 ft | 468 kts | 230° |
| 2026-05-06 04:59 | 50.92146 | -2.52468 | 38987 ft | 467 kts | 216° |
| 2026-05-06 05:00 | 50.89308 | -2.54959 | 38989 ft | 467 kts | 200° |
| 2026-05-06 05:00 | 50.86159 | -2.56165 | 38981 ft | 467 kts | 185° |
| 2026-05-06 05:00 | 50.82925 | -2.55998 | 38977 ft | 467 kts | 170° |
| 2026-05-06 05:00 | 50.79831 | -2.54463 | 38987 ft | 468 kts | 154° |
| 2026-05-06 05:01 | 50.77100 | -2.51681 | 38986 ft | 469 kts | 139° |
| 2026-05-06 05:01 | 50.74934 | -2.47841 | 38992 ft | 471 kts | 124° |
| 2026-05-06 05:01 | 50.73491 | -2.43210 | 38999 ft | 472 kts | 109° |
| 2026-05-06 05:02 | 50.71582 | -2.33276 | 38977 ft | 473 kts | 108° |
| 2026-05-06 05:02 | 50.69633 | -2.23346 | 38988 ft | 474 kts | 108° |
| 2026-05-06 05:03 | 50.67701 | -2.13395 | 38966 ft | 474 kts | 108° |
| 2026-05-06 05:03 | 50.66982 | -2.08333 | 38960 ft | 475 kts | 94° |
| 2026-05-06 05:03 | 50.67207 | -2.03132 | 38996 ft | 479 kts | 79° |
| 2026-05-06 05:03 | 50.68295 | -1.98237 | 38985 ft | 480 kts | 63° |
| 2026-05-06 05:04 | 50.70199 | -1.93925 | 38964 ft | 481 kts | 46° |
| 2026-05-06 05:04 | 50.72785 | -1.90594 | 38984 ft | 482 kts | 30° |
| 2026-05-06 05:04 | 50.75859 | -1.88517 | 38997 ft | 481 kts | 14° |
| 2026-05-06 05:04 | 50.79159 | -1.87842 | 38980 ft | 480 kts | 358° |
| 2026-05-06 05:05 | 50.82447 | -1.88611 | 38966 ft | 478 kts | 341° |
| 2026-05-06 05:05 | 50.85461 | -1.90771 | 38984 ft | 476 kts | 326° |
| 2026-05-06 05:05 | 50.87979 | -1.94139 | 38999 ft | 474 kts | 310° |
| 2026-05-06 05:05 | 50.89820 | -1.98435 | 38994 ft | 472 kts | 294° |
| 2026-05-06 05:06 | 50.90959 | -2.03290 | 38970 ft | 471 kts | 286° |
| 2026-05-06 05:06 | 50.92859 | -2.13227 | 38984 ft | 470 kts | 286° |
| 2026-05-06 05:07 | 50.94792 | -2.23069 | 38984 ft | 471 kts | 286° |
| 2026-05-06 05:07 | 50.96673 | -2.33011 | 38999 ft | 470 kts | 282° |
| 2026-05-06 05:07 | 50.96970 | -2.38139 | 39023 ft | 468 kts | 265° |
| 2026-05-06 05:08 | 50.96373 | -2.43141 | 39000 ft | 469 kts | 250° |
| 2026-05-06 05:08 | 50.94956 | -2.47769 | 39003 ft | 468 kts | 235° |
| 2026-05-06 05:08 | 50.92864 | -2.51545 | 39025 ft | 467 kts | 220° |
| 2026-05-06 05:08 | 50.90151 | -2.54388 | 39005 ft | 466 kts | 204° |
| 2026-05-06 05:09 | 50.87071 | -2.55959 | 39005 ft | 467 kts | 189° |
| 2026-05-06 05:09 | 50.83833 | -2.56182 | 39009 ft | 467 kts | 174° |
| 2026-05-06 05:09 | 50.80668 | -2.55025 | 39000 ft | 468 kts | 159° |
| 2026-05-06 05:09 | 50.77811 | -2.52573 | 39001 ft | 470 kts | 143° |
| 2026-05-06 05:10 | 50.75460 | -2.48986 | 38989 ft | 471 kts | 128° |
| 2026-05-06 05:10 | 50.73807 | -2.44535 | 38990 ft | 473 kts | 112° |
| 2026-05-06 05:10 | 50.72770 | -2.39604 | 38979 ft | 474 kts | 107° |
| 2026-05-06 05:11 | 50.70878 | -2.29618 | 38975 ft | 475 kts | 108° |
| 2026-05-06 05:11 | 50.68915 | -2.19683 | 38991 ft | 475 kts | 108° |
| 2026-05-06 05:12 | 50.67093 | -2.09662 | 38974 ft | 476 kts | 99° |
| 2026-05-06 05:12 | 50.67068 | -2.04454 | 39007 ft | 479 kts | 82° |
| 2026-05-06 05:12 | 50.67951 | -1.99387 | 38981 ft | 481 kts | 66° |
| 2026-05-06 05:12 | 50.69670 | -1.94889 | 38981 ft | 481 kts | 50° |
| 2026-05-06 05:13 | 50.72107 | -1.91298 | 38983 ft | 481 kts | 34° |
| 2026-05-06 05:13 | 50.75074 | -1.88900 | 38990 ft | 480 kts | 18° |
| 2026-05-06 05:13 | 50.78297 | -1.87876 | 38979 ft | 479 kts | 2° |
| 2026-05-06 05:13 | 50.81607 | -1.88270 | 38977 ft | 477 kts | 346° |
| 2026-05-06 05:14 | 50.84699 | -1.90073 | 38987 ft | 475 kts | 330° |
| 2026-05-06 05:14 | 50.87358 | -1.93127 | 38978 ft | 473 kts | 314° |
| 2026-05-06 05:14 | 50.89398 | -1.97198 | 38984 ft | 471 kts | 299° |
| 2026-05-06 05:14 | 50.90684 | -2.01947 | 38988 ft | 469 kts | 287° |
| 2026-05-06 05:15 | 50.91639 | -2.06893 | 38981 ft | 469 kts | 286° |
| 2026-05-06 05:15 | 50.93544 | -2.16658 | 38992 ft | 469 kts | 286° |
| 2026-05-06 05:16 | 50.95464 | -2.26597 | 38995 ft | 469 kts | 286° |
| 2026-05-06 05:16 | 50.96992 | -2.36603 | 39002 ft | 467 kts | 269° |
| 2026-05-06 05:16 | 50.96633 | -2.41703 | 39011 ft | 467 kts | 255° |
| 2026-05-06 05:17 | 50.95447 | -2.46483 | 39002 ft | 466 kts | 240° |
| 2026-05-06 05:17 | 50.93504 | -2.50591 | 39004 ft | 466 kts | 224° |
| 2026-05-06 05:17 | 50.91031 | -2.53643 | 39014 ft | 466 kts | 210° |
| 2026-05-06 05:17 | 50.88040 | -2.55621 | 39009 ft | 467 kts | 194° |
| 2026-05-06 05:18 | 50.84823 | -2.56264 | 39007 ft | 468 kts | 179° |
| 2026-05-06 05:18 | 50.81604 | -2.55520 | 38998 ft | 469 kts | 163° |
| 2026-05-06 05:18 | 50.78625 | -2.53441 | 39002 ft | 471 kts | 148° |
| 2026-05-06 05:18 | 50.76092 | -2.50152 | 39000 ft | 472 kts | 133° |
| 2026-05-06 05:19 | 50.74208 | -2.45901 | 38992 ft | 474 kts | 117° |
| 2026-05-06 05:19 | 50.72102 | -2.36014 | 38982 ft | 476 kts | 107° |
| 2026-05-06 05:20 | 50.70158 | -2.26033 | 38980 ft | 476 kts | 108° |
| 2026-05-06 05:20 | 50.68233 | -2.16102 | 38978 ft | 477 kts | 108° |
| 2026-05-06 05:21 | 50.66970 | -2.05902 | 38985 ft | 479 kts | 86° |
| 2026-05-06 05:21 | 50.67614 | -2.00748 | 38977 ft | 481 kts | 71° |
| 2026-05-06 05:21 | 50.69118 | -1.96057 | 38981 ft | 481 kts | 54° |
| 2026-05-06 05:21 | 50.71376 | -1.92182 | 38985 ft | 481 kts | 38° |
| 2026-05-06 05:22 | 50.74210 | -1.89434 | 38984 ft | 481 kts | 22° |
| 2026-05-06 05:22 | 50.77432 | -1.88007 | 38982 ft | 479 kts | 6° |
| 2026-05-06 05:22 | 50.80750 | -1.88029 | 38978 ft | 477 kts | 350° |
| 2026-05-06 05:22 | 50.83926 | -1.89475 | 38981 ft | 474 kts | 334° |
| 2026-05-06 05:23 | 50.86679 | -1.92170 | 38981 ft | 472 kts | 319° |
| 2026-05-06 05:23 | 50.88921 | -1.96019 | 38982 ft | 470 kts | 303° |
| 2026-05-06 05:23 | 50.91378 | -2.05512 | 38981 ft | 468 kts | 286° |
| 2026-05-06 05:24 | 50.93272 | -2.15286 | 38986 ft | 467 kts | 287° |
| 2026-05-06 05:24 | 50.95176 | -2.25088 | 38998 ft | 467 kts | 286° |
| 2026-05-06 05:25 | 50.96922 | -2.34987 | 38942 ft | 467 kts | 277° |
| 2026-05-06 05:25 | 50.96857 | -2.40139 | 38523 ft | 470 kts | 259° |
| 2026-05-06 05:25 | 50.95918 | -2.45070 | 37924 ft | 467 kts | 245° |
| 2026-05-06 05:26 | 50.94197 | -2.49409 | 37358 ft | 463 kts | 229° |
| 2026-05-06 05:26 | 50.91890 | -2.52782 | 36796 ft | 460 kts | 214° |
| 2026-05-06 05:26 | 50.89069 | -2.55119 | 36259 ft | 458 kts | 200° |
| 2026-05-06 05:26 | 50.85966 | -2.56203 | 35718 ft | 458 kts | 185° |
| 2026-05-06 05:27 | 50.82796 | -2.55968 | 35191 ft | 458 kts | 169° |
| 2026-05-06 05:27 | 50.79766 | -2.54426 | 34659 ft | 458 kts | 154° |
| 2026-05-06 05:27 | 50.77101 | -2.51692 | 34150 ft | 458 kts | 139° |
| 2026-05-06 05:27 | 50.74978 | -2.47954 | 33572 ft | 459 kts | 124° |
| 2026-05-06 05:28 | 50.73543 | -2.43466 | 32972 ft | 459 kts | 110° |
| 2026-05-06 05:28 | 50.72599 | -2.38660 | 32394 ft | 457 kts | 107° |
| 2026-05-06 05:28 | 50.71691 | -2.33822 | 31812 ft | 459 kts | 108° |
| 2026-05-06 05:28 | 50.70745 | -2.29002 | 31252 ft | 462 kts | 109° |
| 2026-05-06 05:29 | 50.69795 | -2.24151 | 30695 ft | 464 kts | 107° |
| 2026-05-06 05:29 | 50.69027 | -2.19264 | 30167 ft | 466 kts | 103° |
| 2026-05-06 05:29 | 50.68467 | -2.14214 | 29503 ft | 469 kts | 100° |
| 2026-05-06 05:29 | 50.68204 | -2.09100 | 28803 ft | 471 kts | 89° |
| 2026-05-06 05:30 | 50.68658 | -2.03967 | 28141 ft | 472 kts | 82° |
| 2026-05-06 05:30 | 50.68836 | -1.98804 | 27476 ft | 471 kts | 93° |
| 2026-05-06 05:30 | 50.68511 | -1.93737 | 26856 ft | 457 kts | 99° |
| 2026-05-06 05:30 | 50.68029 | -1.88854 | 26238 ft | 445 kts | 100° |
| 2026-05-06 05:31 | 50.67645 | -1.84070 | 25640 ft | 435 kts | 96° |
| 2026-05-06 05:31 | 50.67528 | -1.79347 | 25040 ft | 427 kts | 92° |
| 2026-05-06 05:31 | 50.67490 | -1.74705 | 24462 ft | 419 kts | 93° |
| 2026-05-06 05:31 | 50.67291 | -1.70170 | 23904 ft | 412 kts | 97° |
| 2026-05-06 05:32 | 50.67010 | -1.65710 | 23311 ft | 406 kts | 96° |
| 2026-05-06 05:32 | 50.66835 | -1.61290 | 22652 ft | 402 kts | 93° |
| 2026-05-06 05:32 | 50.66771 | -1.56906 | 22004 ft | 398 kts | 90° |
| 2026-05-06 05:32 | 50.67273 | -1.52653 | 21349 ft | 396 kts | 69° |
| 2026-05-06 05:33 | 50.68486 | -1.48779 | 20724 ft | 393 kts | 62° |
| 2026-05-06 05:33 | 50.69719 | -1.44948 | 20104 ft | 390 kts | 65° |
| 2026-05-06 05:33 | 50.70839 | -1.41068 | 19541 ft | 387 kts | 66° |
| 2026-05-06 05:33 | 50.71988 | -1.37235 | 18941 ft | 385 kts | 63° |
| 2026-05-06 05:34 | 50.73214 | -1.33486 | 18362 ft | 383 kts | 62° |
| 2026-05-06 05:34 | 50.74402 | -1.29742 | 17726 ft | 380 kts | 64° |
| 2026-05-06 05:34 | 50.75530 | -1.25976 | 17082 ft | 377 kts | 62° |
| 2026-05-06 05:34 | 50.77107 | -1.22745 | 16523 ft | 370 kts | 40° |
| 2026-05-06 05:35 | 50.79193 | -1.20527 | 16030 ft | 363 kts | 31° |
| 2026-05-06 05:35 | 50.81315 | -1.18415 | 15538 ft | 358 kts | 33° |
| 2026-05-06 05:35 | 50.83360 | -1.16202 | 15050 ft | 353 kts | 34° |
| 2026-05-06 05:35 | 50.85394 | -1.14072 | 14557 ft | 349 kts | 32° |
| 2026-05-06 05:36 | 50.87438 | -1.12053 | 14078 ft | 344 kts | 31° |
| 2026-05-06 05:36 | 50.89436 | -1.10005 | 13604 ft | 339 kts | 33° |
| 2026-05-06 05:36 | 50.91372 | -1.07937 | 13066 ft | 335 kts | 33° |
| 2026-05-06 05:36 | 50.93310 | -1.05922 | 12541 ft | 331 kts | 32° |
| 2026-05-06 05:37 | 50.94911 | -1.04298 | 12236 ft | 323 kts | 32° |
| 2026-05-06 05:37 | 50.96802 | -1.02341 | 11864 ft | 315 kts | 32° |
| 2026-05-06 05:37 | 50.98591 | -1.00452 | 11587 ft | 304 kts | 32° |
| 2026-05-06 05:37 | 51.00324 | -0.98620 | 11287 ft | 293 kts | 35° |
| 2026-05-06 05:38 | 51.01779 | -0.96383 | 11012 ft | 291 kts | 48° |
| 2026-05-06 05:38 | 51.03058 | -0.93890 | 10744 ft | 290 kts | 49° |
| 2026-05-06 05:38 | 51.04370 | -0.91529 | 10470 ft | 279 kts | 45° |
| 2026-05-06 05:38 | 51.05688 | -0.89336 | 10187 ft | 270 kts | 45° |
| 2026-05-06 05:39 | 51.06925 | -0.87151 | 9896 ft | 261 kts | 48° |
| 2026-05-06 05:39 | 51.08073 | -0.84980 | 9592 ft | 252 kts | 47° |
| 2026-05-06 05:39 | 51.09237 | -0.82918 | 9297 ft | 249 kts | 45° |
| 2026-05-06 05:39 | 51.10403 | -0.80931 | 8938 ft | 250 kts | 45° |
| 2026-05-06 05:40 | 51.11547 | -0.78860 | 8525 ft | 248 kts | 47° |
| 2026-05-06 05:40 | 51.12680 | -0.76798 | 8157 ft | 247 kts | 46° |
| 2026-05-06 05:40 | 51.13835 | -0.74769 | 7688 ft | 247 kts | 45° |
| 2026-05-06 05:40 | 51.14966 | -0.72732 | 7316 ft | 244 kts | 47° |
| 2026-05-06 05:41 | 51.16070 | -0.70705 | 6934 ft | 241 kts | 46° |
| 2026-05-06 05:41 | 51.17192 | -0.68736 | 6561 ft | 237 kts | 41° |
| 2026-05-06 05:41 | 51.18593 | -0.67473 | 6131 ft | 229 kts | 8° |
| 2026-05-06 05:41 | 51.20122 | -0.67813 | 5784 ft | 223 kts | 337° |
| 2026-05-06 05:42 | 51.21067 | -0.68466 | 5533 ft | 224 kts | 339° |
| 2026-05-06 05:42 | 51.22589 | -0.69008 | 5124 ft | 226 kts | 355° |
| 2026-05-06 05:42 | 51.24141 | -0.69101 | 4810 ft | 221 kts | 355° |
| 2026-05-06 05:42 | 51.25649 | -0.69483 | 4491 ft | 219 kts | 347° |
| 2026-05-06 05:43 | 51.27133 | -0.70047 | 4176 ft | 218 kts | 349° |
| 2026-05-06 05:43 | 51.28630 | -0.70419 | 3865 ft | 218 kts | 353° |
| 2026-05-06 05:43 | 51.30118 | -0.70775 | 3656 ft | 215 kts | 351° |
| 2026-05-06 05:43 | 51.31580 | -0.71181 | 3482 ft | 213 kts | 351° |
| 2026-05-06 05:44 | 51.33050 | -0.71572 | 3309 ft | 214 kts | 352° |
| 2026-05-06 05:44 | 51.34518 | -0.71922 | 3131 ft | 213 kts | 353° |
| 2026-05-06 05:44 | 51.35988 | -0.72281 | 2945 ft | 214 kts | 353° |
| 2026-05-06 05:44 | 51.37445 | -0.72657 | 2767 ft | 208 kts | 353° |
| 2026-05-06 05:45 | 51.38833 | -0.73005 | 2583 ft | 198 kts | 354° |
| 2026-05-06 05:45 | 51.40125 | -0.73324 | 2488 ft | 177 kts | 354° |
| 2026-05-06 05:45 | 51.41361 | -0.73638 | 2498 ft | 179 kts | 354° |
| 2026-05-06 05:45 | 51.42531 | -0.73931 | 2497 ft | 172 kts | 354° |
| 2026-05-06 05:46 | 51.43719 | -0.74230 | 2503 ft | 170 kts | 354° |
| 2026-05-06 05:46 | 51.44893 | -0.74275 | 2486 ft | 170 kts | 15° |
| 2026-05-06 05:46 | 51.45864 | -0.73265 | 2494 ft | 169 kts | 46° |
| 2026-05-06 05:46 | 51.46382 | -0.71553 | 2479 ft | 176 kts | 76° |
| 2026-05-06 05:47 | 51.46375 | -0.69590 | 2498 ft | 178 kts | 88° |
| 2026-05-06 05:47 | 51.46369 | -0.67619 | 2509 ft | 176 kts | 83° |
| 2026-05-06 05:47 | 51.46421 | -0.65648 | 2496 ft | 178 kts | 84° |
| 2026-05-06 05:47 | 51.46452 | -0.63524 | 2496 ft | 209 kts | 84° |
| 2026-05-06 05:48 | 51.46546 | -0.61128 | 2550 ft | 209 kts | 80° |
| 2026-05-06 05:48 | 51.46807 | -0.58997 | 2245 ft | 175 kts | 71° |
| 2026-05-06 05:48 | 51.47252 | -0.57305 | 1525 ft | 155 kts | 60° |
| 2026-05-06 05:48 | 51.47663 | -0.55780 | 986 ft | 144 kts | 69° |
| 2026-05-06 05:49 | 51.47786 | -0.54278 | 760 ft | 132 kts | 89° |
| 2026-05-06 05:49 | 51.47716 | -0.52817 | 585 ft | 132 kts | 89° |
| 2026-05-06 05:49 | 51.47725 | -0.51354 | 422 ft | 131 kts | 84° |
| 2026-05-06 05:49 | 51.47739 | -0.49914 | 284 ft | 131 kts | 85° |
| 2026-05-06 05:50 | 51.47750 | -0.48481 | 126 ft | 123 kts | 86° |
| 2026-05-06 05:50 | 51.47758 | -0.47336 | 91 ft | 65 kts | 92° |
| 2026-05-06 05:50 | 51.47755 | -0.46997 | 95 ft | 12 kts | 89° |
| 2026-05-06 05:50 | 51.47757 | -0.46771 | 95 ft | 31 kts | 90° |
| 2026-05-06 05:51 | 51.47757 | -0.46377 | 94 ft | 35 kts | 90° |
| 2026-05-06 05:51 | 51.47698 | -0.46141 | 94 ft | 22 kts | 145° |
| 2026-05-06 05:51 | 51.47584 | -0.46073 | 93 ft | 15 kts | 198° |
| 2026-05-06 05:51 | 51.47517 | -0.46177 | 93 ft | 14 kts | 260° |
| 2026-05-06 05:52 | 51.47516 | -0.46346 | 90 ft | 16 kts | 271° |
| 2026-05-06 05:52 | 51.47457 | -0.46414 | 93 ft | 11 kts | 177° |
| 2026-05-06 05:52 | 51.47431 | -0.46413 | 93 ft | 0 kts | 180° |